• Join FlightAware (Why Join?)
  • Login
  • US Flag 
07:32AM EDT


 

Airport Tracker/Info


-or-


 

Live Flight TrackerFlight Track Log ✈ SKW4821 ✈ 05-May-2013 ✈ KGRR - KMSP

Flight Track Log - Related Links

Times and Time Zones

All times are in EDT time to prevent confusion due to time zone crossing. See the SKW4821 flight status page for this flight to view local times or setup timezone preferences in your user account.

Time Position Orientation Groundspeed Altitude Reporting Facility
EDT Latitude Longitude Course Direction KTS MPH feet Rate Location/Type
10:24AM 42.9511 -85.5000 328° Northwest 227 261 5,600  Level Minneapolis Center
10:25AM 43.0308 -85.7721 311° West  Level FlightAware Approximate
10:25AM 42.9939 -85.5689 310° West 240 276 8,300  Level Chicago Center
10:26AM 43.0867 -85.8600 311° West  Level FlightAware Approximate
10:26AM 43.0383 -85.6400 311° West 246 283 10,700  Level Chicago Center
10:27AM 43.1432 -85.9473 314° West  Level FlightAware Approximate
10:27AM 43.1000 -85.7372 311° West 285 328 12,500  Level Chicago Center
10:28AM 43.2022 -86.0315 314° West  Level FlightAware Approximate
10:28AM 43.1575 -85.8314 310° West 326 375 14,000  Level Chicago Center
10:29AM 43.2186 -85.9303 310° West 345 397 15,700 1,680 Climbing Chicago Center
10:30AM 43.2814 -86.0322 310° West 353 406 17,500 1,440 Climbing Chicago Center
10:31AM 43.3461 -86.1372 310° West 359 413 18,700 1,320 Climbing Chicago Center
10:32AM 43.4250 -86.2647 310° West 366 421 20,300 1,380 Climbing Chicago Center
10:33AM 43.4917 -86.3750 310° West 374 430 21,600 1,080 Climbing Chicago Center
10:34AM 43.5450 -86.4658 309° West 375 432 22,500 1,080 Climbing Minneapolis Center
10:35AM 43.6139 -86.5800 310° West 382 440 23,800 1,200 Climbing Minneapolis Center
10:36AM 43.6972 -86.7172 310° West 388 447 25,000 1,020 Climbing Minneapolis Center
10:37AM 43.7661 -86.8356 309° West 395 455 25,900 480 Climbing Minneapolis Center
10:39AM 43.8367 -86.9542 310° West 400 460 26,000  Climbing Minneapolis Center
10:40AM 43.9103 -87.0792 309° West 415 478 26,000  Level Minneapolis Center
10:41AM 43.9842 -87.2050 309° West 420 483 26,000  Level Minneapolis Center
10:42AM 44.0628 -87.3372 310° West 421 484 26,000  Level Minneapolis Center
10:43AM 44.1375 -87.4656 309° West 426 490 26,000  Level Minneapolis Center
10:44AM 44.2178 -87.6189 306° West 425 489 26,000  Level Minneapolis Center
10:45AM 44.2483 -87.7764 285° West 424 488 26,000  Level Minneapolis Center
10:46AM 44.2786 -87.9328 285° West 421 484 26,000  Level Minneapolis Center
10:47AM 44.3094 -88.0881 286° West 419 482 26,000  Level Minneapolis Center
10:48AM 44.3383 -88.2453 284° West 420 483 26,000  Level Minneapolis Center
10:49AM 44.3667 -88.3992 284° West 413 475 26,000  Level Minneapolis Center
10:50AM 44.3967 -88.5564 285° West 418 481 26,000  Level Minneapolis Center
10:51AM 44.4308 -88.7375 285° West 416 479 26,000  Level Minneapolis Center
10:52AM 44.4600 -88.8917 285° West 413 475 26,000  Level Minneapolis Center
10:53AM 44.4875 -89.0481 284° West 413 475 26,000  Level Minneapolis Center
10:54AM 44.5156 -89.2067 284° West 416 479 26,000  Level Minneapolis Center
10:55AM 44.5431 -89.3614 284° West 415 478 26,000  Level Minneapolis Center
10:56AM 44.5706 -89.5172 284° West 413 475 26,000  Level Minneapolis Center
10:57AM 44.6028 -89.6967 284° West 410 472 26,000  Level Minneapolis Center
10:58AM 44.6289 -89.8536 283° West 413 475 26,000  Level Minneapolis Center
10:59AM 44.6567 -90.0119 284° West 417 480 26,000  Level Minneapolis Center
11:00AM 44.6853 -90.1739 284° West 424 488 26,000  Level Minneapolis Center
11:01AM 44.7125 -90.3422 283° West 439 505 26,000 -120 Level Minneapolis Center
11:02AM 44.7414 -90.5094 284° West 440 506 25,800 -600 Descending Minneapolis Center
11:03AM 44.7706 -90.6886 283° West 450 518 24,800 -900 Descending Minneapolis Center
11:04AM 44.8000 -90.8675 283° West 467 537 24,000 -420 Descending Minneapolis Center
11:05AM 44.8347 -91.0703 284° West 452 520 24,000 -720 Level Minneapolis Center
11:06AM 44.8597 -91.2350 282° West 438 504 22,600 -1,620 Descending Minneapolis Center
11:07AM 44.8847 -91.3964 282° West 429 494 20,700 -2,040 Descending Minneapolis Center
11:08AM 44.9150 -91.5664 284° West 420 483 18,500 -1,860 Descending Minneapolis Center
11:09AM 44.9431 -91.7097 286° West 416 479 16,900 -1,680 Descending Minneapolis Center
11:10AM 44.9703 -91.8567 285° West 396 456 15,100 -1,800 Descending Minneapolis Center
11:11AM 44.9969 -92.0036 284° West 389 448 13,300 -1,980 Descending Minneapolis Center
11:12AM 45.0292 -92.1786 285° West 387 445 11,100 -1,140 Descending Minneapolis Center
11:13AM 45.0453 -92.3219 279° West 375 432 11,000 -120 Descending Minneapolis Center
11:14AM 45.0014 -92.4433 243° Southwest 346 398 10,900 -540 Descending Minneapolis Center
11:16AM 44.9531 -92.5464 236° Southwest 314 361 9,800 -1,020 Descending Minneapolis Center
11:17AM 44.9000 -92.6581 236° Southwest 289 333 8,700 -1,020 Descending Minneapolis Center
11:18AM 44.8589 -92.7467 237° Southwest 273 314 7,700 -1,080 Descending Minneapolis Center
11:19AM 44.8219 -92.8381 240° Southwest 274 315 6,500 -1,440 Descending Minneapolis Center
11:20AM 44.8231 -92.9619 271° West 263 303 4,800 -1,680 Descending Minneapolis Center